Aeroporto :
LOGIN :

Iscrizione | Disclaimer

   EN    FR    IT 

 










Sommario :    VFR   VFR Marginale   IFR   IFR Intensivo   IFR Molto Intensivo
Visibilità : 
Base nubi : 
>= 8 km
>= 3000ft
5 / 8 km
1000 / 3000 ft
1500m / 5 km
500 / 1000 ft
800 / 1500m
200 / 500 ft
< 800m
< 200 ft
Simboli :   Temporali  Nebbia  Neve Forte  Precipitazioni Forti  Vento > 20 kt
SIGMETs :   Varie  Temporali  Ghiacco  Turbolenza  Onda orograficha  Ceneri Vulcaniche






- Altitudine del aeroporto : 1249 ft


ETSN - Neuburg AB

ULTIMO METAR :
  • 141320Z 30008KT 9999 FEW045 BKN280 23/11 Q1020 BLU+

METARs OBSOLETI :
  • 141220Z 27008KT 9999 FEW045 BKN300 23/11 Q1021 BLU+
  • 141120Z 25009KT 9999 FEW040 BKN300 22/10 Q1021 BLU+
  • 141020Z 27009KT 9999 FEW040 BKN290 21/11 Q1022 BLU+
  • 140920Z 26004KT 9999 FEW035 BKN280 20/10 Q1022 BLU+

TAF TAF ETSN
Valido dal 14 a 14 ore il 14 a 23 ore UTC


141323Z 1414/1423 26012KT 9999 NSW FEW035 BKN280
BECMG 1418/1420 VRB03KT 9999 NSW BKN280



MetMap, La meteo Aeronautica in un colpo d'occhio ! - Copyright ORBIFLY Dicembre 2007 - Disclaimer

ORBIFLY MET'MAP TEAM :

Programmazione e sviluppo : Alexandra Zaïnal
Concezione : Baudouin d'Aumeries
Supporto tecnico e logistico : Manuel Goepfert
Aiuto : Marc-Olivier Méhu
Aiuto per la traduzione : Arnaldo La Scala




FONTI E CREDITI :

   NOAA